sensor_id;sensor_type;location;lat;lon;timestamp;temperature;humidity
58554;DHT22;48119;53.218;6.576;2022-10-16T00:00:40;15.10;99.60
58554;DHT22;48119;53.218;6.576;2022-10-16T00:03:07;15.20;99.60
58554;DHT22;48119;53.218;6.576;2022-10-16T00:05:38;15.10;99.60
58554;DHT22;48119;53.218;6.576;2022-10-16T00:08:07;15.10;99.60
58554;DHT22;48119;53.218;6.576;2022-10-16T00:10:33;15.10;99.60
58554;DHT22;48119;53.218;6.576;2022-10-16T00:12:59;15.10;99.50
58554;DHT22;48119;53.218;6.576;2022-10-16T00:15:25;15.10;99.50
58554;DHT22;48119;53.218;6.576;2022-10-16T00:17:50;15.20;99.50
58554;DHT22;48119;53.218;6.576;2022-10-16T00:20:16;15.20;99.50
58554;DHT22;48119;53.218;6.576;2022-10-16T00:22:42;15.10;99.50
58554;DHT22;48119;53.218;6.576;2022-10-16T00:25:08;15.10;99.50
58554;DHT22;48119;53.218;6.576;2022-10-16T00:27:34;15.10;99.50
58554;DHT22;48119;53.218;6.576;2022-10-16T00:30:00;15.10;99.50
58554;DHT22;48119;53.218;6.576;2022-10-16T00:32:26;15.10;99.50
58554;DHT22;48119;53.218;6.576;2022-10-16T00:34:51;15.10;99.50
58554;DHT22;48119;53.218;6.576;2022-10-16T00:37:20;15.10;99.50
58554;DHT22;48119;53.218;6.576;2022-10-16T00:39:46;15.10;99.50
58554;DHT22;48119;53.218;6.576;2022-10-16T00:42:17;15.10;99.60
58554;DHT22;48119;53.218;6.576;2022-10-16T00:44:55;15.10;99.50
58554;DHT22;48119;53.218;6.576;2022-10-16T00:47:40;15.10;99.40
58554;DHT22;48119;53.218;6.576;2022-10-16T00:50:22;15.20;99.50
58554;DHT22;48119;53.218;6.576;2022-10-16T00:52:51;15.10;99.40
58554;DHT22;48119;53.218;6.576;2022-10-16T00:55:18;15.10;99.40
58554;DHT22;48119;53.218;6.576;2022-10-16T00:57:53;15.20;99.50
58554;DHT22;48119;53.218;6.576;2022-10-16T01:00:25;15.20;99.50
58554;DHT22;48119;53.218;6.576;2022-10-16T01:03:00;15.20;99.50
58554;DHT22;48119;53.218;6.576;2022-10-16T01:05:46;15.20;99.40
58554;DHT22;48119;53.218;6.576;2022-10-16T01:08:29;15.20;99.30
58554;DHT22;48119;53.218;6.576;2022-10-16T01:11:24;15.20;99.50
58554;DHT22;48119;53.218;6.576;2022-10-16T01:13:59;15.20;99.30
58554;DHT22;48119;53.218;6.576;2022-10-16T01:16:45;15.10;99.40
58554;DHT22;48119;53.218;6.576;2022-10-16T01:22:03;15.20;99.40
58554;DHT22;48119;53.218;6.576;2022-10-16T01:24:40;15.20;99.30
58554;DHT22;48119;53.218;6.576;2022-10-16T01:27:13;15.20;99.20
58554;DHT22;48119;53.218;6.576;2022-10-16T01:35:03;15.20;99.00
58554;DHT22;48119;53.218;6.576;2022-10-16T01:40:17;15.20;99.10
58554;DHT22;48119;53.218;6.576;2022-10-16T01:42:53;15.20;99.20
58554;DHT22;48119;53.218;6.576;2022-10-16T01:45:20;15.20;99.10
58554;DHT22;48119;53.218;6.576;2022-10-16T01:47:48;15.20;99.10
58554;DHT22;48119;53.218;6.576;2022-10-16T01:50:15;15.20;99.10
58554;DHT22;48119;53.218;6.576;2022-10-16T01:52:44;15.20;99.10
58554;DHT22;48119;53.218;6.576;2022-10-16T01:55:16;15.20;99.00
58554;DHT22;48119;53.218;6.576;2022-10-16T01:57:45;15.20;99.00
58554;DHT22;48119;53.218;6.576;2022-10-16T02:00:13;15.20;99.00
58554;DHT22;48119;53.218;6.576;2022-10-16T02:02:41;15.20;98.90
58554;DHT22;48119;53.218;6.576;2022-10-16T02:05:32;15.20;98.90
58554;DHT22;48119;53.218;6.576;2022-10-16T02:07:59;15.20;98.80
58554;DHT22;48119;53.218;6.576;2022-10-16T02:10:25;15.20;98.90
58554;DHT22;48119;53.218;6.576;2022-10-16T02:13:29;15.20;98.90
58554;DHT22;48119;53.218;6.576;2022-10-16T02:15:56;15.20;98.70
58554;DHT22;48119;53.218;6.576;2022-10-16T02:18:21;15.20;98.80
58554;DHT22;48119;53.218;6.576;2022-10-16T02:20:55;15.20;98.80
58554;DHT22;48119;53.218;6.576;2022-10-16T02:23:40;15.20;98.80
58554;DHT22;48119;53.218;6.576;2022-10-16T02:26:13;15.20;98.70
58554;DHT22;48119;53.218;6.576;2022-10-16T02:28:55;15.20;98.70
58554;DHT22;48119;53.218;6.576;2022-10-16T02:31:27;15.20;98.60
58554;DHT22;48119;53.218;6.576;2022-10-16T02:33:55;15.20;98.70
58554;DHT22;48119;53.218;6.576;2022-10-16T02:36:21;15.20;98.60
58554;DHT22;48119;53.218;6.576;2022-10-16T02:38:47;15.20;98.60
58554;DHT22;48119;53.218;6.576;2022-10-16T02:41:14;15.20;98.60
58554;DHT22;48119;53.218;6.576;2022-10-16T02:43:40;15.20;98.60
58554;DHT22;48119;53.218;6.576;2022-10-16T02:46:05;15.20;98.60
58554;DHT22;48119;53.218;6.576;2022-10-16T02:48:31;15.20;98.60
58554;DHT22;48119;53.218;6.576;2022-10-16T02:50:57;15.20;98.60
58554;DHT22;48119;53.218;6.576;2022-10-16T02:53:23;15.20;98.60
58554;DHT22;48119;53.218;6.576;2022-10-16T02:55:48;15.20;98.50
58554;DHT22;48119;53.218;6.576;2022-10-16T02:58:14;15.20;98.40
58554;DHT22;48119;53.218;6.576;2022-10-16T03:00:40;15.20;98.40
58554;DHT22;48119;53.218;6.576;2022-10-16T03:03:06;15.20;98.40
58554;DHT22;48119;53.218;6.576;2022-10-16T03:05:31;15.20;98.40
58554;DHT22;48119;53.218;6.576;2022-10-16T03:07:57;15.20;98.30
58554;DHT22;48119;53.218;6.576;2022-10-16T03:10:25;15.20;98.40
58554;DHT22;48119;53.218;6.576;2022-10-16T03:12:51;15.20;98.20
58554;DHT22;48119;53.218;6.576;2022-10-16T03:15:17;15.20;98.30
58554;DHT22;48119;53.218;6.576;2022-10-16T03:17:42;15.20;98.20
58554;DHT22;48119;53.218;6.576;2022-10-16T03:20:09;15.20;98.20
58554;DHT22;48119;53.218;6.576;2022-10-16T03:22:34;15.20;98.20
58554;DHT22;48119;53.218;6.576;2022-10-16T03:25:00;15.20;98.20
58554;DHT22;48119;53.218;6.576;2022-10-16T03:27:26;15.20;98.10
58554;DHT22;48119;53.218;6.576;2022-10-16T03:29:52;15.20;98.10
58554;DHT22;48119;53.218;6.576;2022-10-16T03:32:17;15.20;98.00
58554;DHT22;48119;53.218;6.576;2022-10-16T03:34:43;15.20;98.00
58554;DHT22;48119;53.218;6.576;2022-10-16T03:37:09;15.30;98.00
58554;DHT22;48119;53.218;6.576;2022-10-16T03:39:35;15.20;98.00
58554;DHT22;48119;53.218;6.576;2022-10-16T03:42:01;15.20;98.10
58554;DHT22;48119;53.218;6.576;2022-10-16T03:44:26;15.20;98.10
58554;DHT22;48119;53.218;6.576;2022-10-16T03:46:52;15.20;98.10
58554;DHT22;48119;53.218;6.576;2022-10-16T03:49:18;15.20;98.10
58554;DHT22;48119;53.218;6.576;2022-10-16T03:51:43;15.20;98.40
58554;DHT22;48119;53.218;6.576;2022-10-16T03:54:10;15.20;98.20
58554;DHT22;48119;53.218;6.576;2022-10-16T03:56:35;15.20;98.20
58554;DHT22;48119;53.218;6.576;2022-10-16T03:59:01;15.30;98.20
58554;DHT22;48119;53.218;6.576;2022-10-16T04:01:27;15.20;98.20
58554;DHT22;48119;53.218;6.576;2022-10-16T04:03:53;15.20;98.20
58554;DHT22;48119;53.218;6.576;2022-10-16T04:06:18;15.20;98.30
58554;DHT22;48119;53.218;6.576;2022-10-16T04:08:44;15.20;98.20
58554;DHT22;48119;53.218;6.576;2022-10-16T04:11:10;15.20;98.40
58554;DHT22;48119;53.218;6.576;2022-10-16T04:13:36;15.20;98.40
58554;DHT22;48119;53.218;6.576;2022-10-16T04:16:02;15.20;98.40
58554;DHT22;48119;53.218;6.576;2022-10-16T04:18:27;15.10;98.30
58554;DHT22;48119;53.218;6.576;2022-10-16T04:20:54;15.10;98.40
58554;DHT22;48119;53.218;6.576;2022-10-16T04:23:20;15.10;98.40
58554;DHT22;48119;53.218;6.576;2022-10-16T04:25:46;15.20;98.50
58554;DHT22;48119;53.218;6.576;2022-10-16T04:28:12;15.10;98.40
58554;DHT22;48119;53.218;6.576;2022-10-16T04:30:38;15.10;98.50
58554;DHT22;48119;53.218;6.576;2022-10-16T04:33:05;15.10;98.50
58554;DHT22;48119;53.218;6.576;2022-10-16T04:35:30;15.10;98.50
58554;DHT22;48119;53.218;6.576;2022-10-16T04:37:59;15.10;98.60
58554;DHT22;48119;53.218;6.576;2022-10-16T04:40:25;15.10;98.50
58554;DHT22;48119;53.218;6.576;2022-10-16T04:42:51;15.10;98.50
58554;DHT22;48119;53.218;6.576;2022-10-16T04:45:17;15.10;98.60
58554;DHT22;48119;53.218;6.576;2022-10-16T04:47:42;15.10;98.60
58554;DHT22;48119;53.218;6.576;2022-10-16T04:50:08;15.10;98.60
58554;DHT22;48119;53.218;6.576;2022-10-16T04:52:34;15.10;98.70
58554;DHT22;48119;53.218;6.576;2022-10-16T04:55:00;15.10;98.70
58554;DHT22;48119;53.218;6.576;2022-10-16T04:57:28;15.10;98.70
58554;DHT22;48119;53.218;6.576;2022-10-16T04:59:55;15.10;98.70
58554;DHT22;48119;53.218;6.576;2022-10-16T05:02:21;15.10;98.70
58554;DHT22;48119;53.218;6.576;2022-10-16T05:04:46;15.10;98.90
58554;DHT22;48119;53.218;6.576;2022-10-16T05:07:12;15.10;99.00
58554;DHT22;48119;53.218;6.576;2022-10-16T05:09:38;15.10;99.10
58554;DHT22;48119;53.218;6.576;2022-10-16T05:12:04;15.10;99.20
58554;DHT22;48119;53.218;6.576;2022-10-16T05:14:30;15.10;99.20
58554;DHT22;48119;53.218;6.576;2022-10-16T05:16:56;15.10;99.30
58554;DHT22;48119;53.218;6.576;2022-10-16T05:19:22;15.10;99.30
58554;DHT22;48119;53.218;6.576;2022-10-16T05:21:47;15.10;99.40
58554;DHT22;48119;53.218;6.576;2022-10-16T05:24:13;15.10;99.40
58554;DHT22;48119;53.218;6.576;2022-10-16T05:26:39;15.10;99.50
58554;DHT22;48119;53.218;6.576;2022-10-16T05:29:05;15.10;99.50
58554;DHT22;48119;53.218;6.576;2022-10-16T05:31:30;15.10;99.50
58554;DHT22;48119;53.218;6.576;2022-10-16T05:34:00;15.10;99.60
58554;DHT22;48119;53.218;6.576;2022-10-16T05:36:26;15.10;99.70
58554;DHT22;48119;53.218;6.576;2022-10-16T05:38:52;15.10;99.70
58554;DHT22;48119;53.218;6.576;2022-10-16T05:41:18;15.10;99.70
58554;DHT22;48119;53.218;6.576;2022-10-16T05:43:47;15.10;99.70
58554;DHT22;48119;53.218;6.576;2022-10-16T05:46:13;15.10;99.70
58554;DHT22;48119;53.218;6.576;2022-10-16T05:48:39;15.10;99.70
58554;DHT22;48119;53.218;6.576;2022-10-16T05:51:06;15.10;99.80
58554;DHT22;48119;53.218;6.576;2022-10-16T05:53:35;15.10;99.70
58554;DHT22;48119;53.218;6.576;2022-10-16T05:56:01;15.10;99.70
58554;DHT22;48119;53.218;6.576;2022-10-16T05:58:32;15.20;99.80
58554;DHT22;48119;53.218;6.576;2022-10-16T06:01:06;15.10;99.70
58554;DHT22;48119;53.218;6.576;2022-10-16T06:03:33;15.10;99.70
58554;DHT22;48119;53.218;6.576;2022-10-16T06:05:58;15.10;99.80
58554;DHT22;48119;53.218;6.576;2022-10-16T06:08:24;15.10;99.80
58554;DHT22;48119;53.218;6.576;2022-10-16T06:11:04;15.10;99.80
58554;DHT22;48119;53.218;6.576;2022-10-16T06:13:31;15.10;99.80
58554;DHT22;48119;53.218;6.576;2022-10-16T06:15:58;15.10;99.80
58554;DHT22;48119;53.218;6.576;2022-10-16T06:18:25;15.10;99.90
58554;DHT22;48119;53.218;6.576;2022-10-16T06:20:51;15.10;99.90
58554;DHT22;48119;53.218;6.576;2022-10-16T06:23:17;15.10;99.90
58554;DHT22;48119;53.218;6.576;2022-10-16T06:25:43;15.10;99.90
58554;DHT22;48119;53.218;6.576;2022-10-16T06:28:08;15.10;99.90
58554;DHT22;48119;53.218;6.576;2022-10-16T06:30:34;15.10;99.90
58554;DHT22;48119;53.218;6.576;2022-10-16T06:33:00;15.00;99.90
58554;DHT22;48119;53.218;6.576;2022-10-16T06:35:25;15.00;99.90
58554;DHT22;48119;53.218;6.576;2022-10-16T06:37:53;15.00;99.90
58554;DHT22;48119;53.218;6.576;2022-10-16T06:40:19;15.10;99.90
58554;DHT22;48119;53.218;6.576;2022-10-16T06:42:44;15.00;99.90
58554;DHT22;48119;53.218;6.576;2022-10-16T06:45:10;15.00;99.90
58554;DHT22;48119;53.218;6.576;2022-10-16T06:47:36;15.10;99.90
58554;DHT22;48119;53.218;6.576;2022-10-16T06:50:03;15.00;99.90
58554;DHT22;48119;53.218;6.576;2022-10-16T06:52:29;15.10;99.90
58554;DHT22;48119;53.218;6.576;2022-10-16T06:54:54;15.10;99.90
58554;DHT22;48119;53.218;6.576;2022-10-16T06:57:20;15.10;99.90
58554;DHT22;48119;53.218;6.576;2022-10-16T06:59:46;15.10;99.90
58554;DHT22;48119;53.218;6.576;2022-10-16T07:02:11;15.10;99.90
58554;DHT22;48119;53.218;6.576;2022-10-16T07:04:37;15.10;99.90
58554;DHT22;48119;53.218;6.576;2022-10-16T07:07:03;15.10;99.90
58554;DHT22;48119;53.218;6.576;2022-10-16T07:09:29;15.10;99.90
58554;DHT22;48119;53.218;6.576;2022-10-16T07:11:54;15.10;99.90
58554;DHT22;48119;53.218;6.576;2022-10-16T07:14:21;15.10;99.90
58554;DHT22;48119;53.218;6.576;2022-10-16T07:16:48;15.20;99.90
58554;DHT22;48119;53.218;6.576;2022-10-16T07:19:14;15.10;99.90
58554;DHT22;48119;53.218;6.576;2022-10-16T07:21:42;15.10;99.90
58554;DHT22;48119;53.218;6.576;2022-10-16T07:24:12;15.20;99.90
58554;DHT22;48119;53.218;6.576;2022-10-16T07:26:39;15.10;99.90
58554;DHT22;48119;53.218;6.576;2022-10-16T07:29:16;15.10;99.90
58554;DHT22;48119;53.218;6.576;2022-10-16T07:31:43;15.20;99.90
58554;DHT22;48119;53.218;6.576;2022-10-16T07:34:10;15.10;99.90
58554;DHT22;48119;53.218;6.576;2022-10-16T07:36:36;15.10;99.90
58554;DHT22;48119;53.218;6.576;2022-10-16T07:39:02;15.10;99.90
58554;DHT22;48119;53.218;6.576;2022-10-16T07:41:28;15.10;99.90
58554;DHT22;48119;53.218;6.576;2022-10-16T07:43:54;15.10;99.90
58554;DHT22;48119;53.218;6.576;2022-10-16T07:46:22;15.10;99.90
58554;DHT22;48119;53.218;6.576;2022-10-16T07:48:48;15.10;99.90
58554;DHT22;48119;53.218;6.576;2022-10-16T07:51:16;15.10;99.90
58554;DHT22;48119;53.218;6.576;2022-10-16T07:53:42;15.20;99.90
58554;DHT22;48119;53.218;6.576;2022-10-16T07:56:09;15.20;99.90
58554;DHT22;48119;53.218;6.576;2022-10-16T07:58:35;15.20;99.90
58554;DHT22;48119;53.218;6.576;2022-10-16T08:01:04;15.20;99.90
58554;DHT22;48119;53.218;6.576;2022-10-16T08:03:31;15.20;99.90
58554;DHT22;48119;53.218;6.576;2022-10-16T08:05:57;15.20;99.90
58554;DHT22;48119;53.218;6.576;2022-10-16T08:08:23;15.20;99.90
58554;DHT22;48119;53.218;6.576;2022-10-16T08:10:49;15.20;99.90
58554;DHT22;48119;53.218;6.576;2022-10-16T08:13:15;15.20;99.90
58554;DHT22;48119;53.218;6.576;2022-10-16T08:15:44;15.20;99.90
58554;DHT22;48119;53.218;6.576;2022-10-16T08:18:12;15.20;99.90
58554;DHT22;48119;53.218;6.576;2022-10-16T08:20:39;15.20;99.90
58554;DHT22;48119;53.218;6.576;2022-10-16T08:23:05;15.20;99.90
58554;DHT22;48119;53.218;6.576;2022-10-16T08:25:31;15.20;99.90
58554;DHT22;48119;53.218;6.576;2022-10-16T08:27:57;15.20;99.90
58554;DHT22;48119;53.218;6.576;2022-10-16T08:30:23;15.20;99.90
58554;DHT22;48119;53.218;6.576;2022-10-16T08:32:49;15.20;99.90
58554;DHT22;48119;53.218;6.576;2022-10-16T08:35:15;15.20;99.90
58554;DHT22;48119;53.218;6.576;2022-10-16T08:37:42;15.20;99.90
58554;DHT22;48119;53.218;6.576;2022-10-16T08:40:17;15.20;99.90
58554;DHT22;48119;53.218;6.576;2022-10-16T08:48:51;15.40;99.90
58554;DHT22;48119;53.218;6.576;2022-10-16T08:51:23;15.40;99.90
58554;DHT22;48119;53.218;6.576;2022-10-16T08:53:57;15.40;99.90
58554;DHT22;48119;53.218;6.576;2022-10-16T08:56:24;15.40;99.90
58554;DHT22;48119;53.218;6.576;2022-10-16T08:58:53;15.40;99.90
58554;DHT22;48119;53.218;6.576;2022-10-16T09:01:22;15.50;99.90
58554;DHT22;48119;53.218;6.576;2022-10-16T09:04:03;15.50;99.90
58554;DHT22;48119;53.218;6.576;2022-10-16T09:06:54;15.50;99.90
58554;DHT22;48119;53.218;6.576;2022-10-16T09:14:56;15.50;99.90
58554;DHT22;48119;53.218;6.576;2022-10-16T09:17:46;15.60;99.90
58554;DHT22;48119;53.218;6.576;2022-10-16T09:25:47;15.60;99.90
58554;DHT22;48119;53.218;6.576;2022-10-16T09:28:14;15.60;99.90
58554;DHT22;48119;53.218;6.576;2022-10-16T09:30:40;15.70;99.90
58554;DHT22;48119;53.218;6.576;2022-10-16T09:33:09;15.70;99.90
58554;DHT22;48119;53.218;6.576;2022-10-16T09:35:45;15.70;99.90
58554;DHT22;48119;53.218;6.576;2022-10-16T09:38:31;15.70;99.90
58554;DHT22;48119;53.218;6.576;2022-10-16T09:40:58;15.70;99.90
58554;DHT22;48119;53.218;6.576;2022-10-16T09:43:28;15.70;99.90
58554;DHT22;48119;53.218;6.576;2022-10-16T09:46:06;15.80;99.90
58554;DHT22;48119;53.218;6.576;2022-10-16T09:48:48;15.80;99.80
58554;DHT22;48119;53.218;6.576;2022-10-16T09:51:21;15.80;99.70
58554;DHT22;48119;53.218;6.576;2022-10-16T09:53:48;15.80;99.70
58554;DHT22;48119;53.218;6.576;2022-10-16T09:56:24;15.80;99.70
58554;DHT22;48119;53.218;6.576;2022-10-16T09:58:52;15.90;99.70
58554;DHT22;48119;53.218;6.576;2022-10-16T10:01:19;15.90;99.60
58554;DHT22;48119;53.218;6.576;2022-10-16T10:03:45;15.90;99.50
58554;DHT22;48119;53.218;6.576;2022-10-16T10:08:59;16.00;99.40
58554;DHT22;48119;53.218;6.576;2022-10-16T10:11:43;16.00;99.20
58554;DHT22;48119;53.218;6.576;2022-10-16T10:19:58;16.00;98.90
58554;DHT22;48119;53.218;6.576;2022-10-16T10:28:03;16.10;98.70
58554;DHT22;48119;53.218;6.576;2022-10-16T10:38:52;16.30;98.40
58554;DHT22;48119;53.218;6.576;2022-10-16T10:41:48;16.30;98.30
58554;DHT22;48119;53.218;6.576;2022-10-16T10:49:30;16.40;97.40
58554;DHT22;48119;53.218;6.576;2022-10-16T11:00:27;16.40;97.00
58554;DHT22;48119;53.218;6.576;2022-10-16T11:05:42;16.40;97.00
58554;DHT22;48119;53.218;6.576;2022-10-16T11:10:50;16.50;96.70
58554;DHT22;48119;53.218;6.576;2022-10-16T11:15:59;16.60;96.50
58554;DHT22;48119;53.218;6.576;2022-10-16T11:21:52;16.70;96.30
58554;DHT22;48119;53.218;6.576;2022-10-16T11:24:26;16.80;95.90
58554;DHT22;48119;53.218;6.576;2022-10-16T11:26:56;16.80;95.50
58554;DHT22;48119;53.218;6.576;2022-10-16T11:29:29;16.80;95.40
58554;DHT22;48119;53.218;6.576;2022-10-16T11:32:06;16.90;95.30
58554;DHT22;48119;53.218;6.576;2022-10-16T11:34:51;17.00;95.10
58554;DHT22;48119;53.218;6.576;2022-10-16T11:37:41;17.00;94.70
58554;DHT22;48119;53.218;6.576;2022-10-16T11:40:33;17.00;94.30
58554;DHT22;48119;53.218;6.576;2022-10-16T11:43:21;17.10;94.20
58554;DHT22;48119;53.218;6.576;2022-10-16T11:45:53;17.10;94.30
58554;DHT22;48119;53.218;6.576;2022-10-16T11:48:41;17.20;93.90
58554;DHT22;48119;53.218;6.576;2022-10-16T11:51:16;17.20;93.70
58554;DHT22;48119;53.218;6.576;2022-10-16T11:56:19;17.20;93.40
58554;DHT22;48119;53.218;6.576;2022-10-16T12:07:08;17.30;92.90
58554;DHT22;48119;53.218;6.576;2022-10-16T12:09:39;17.30;93.00
58554;DHT22;48119;53.218;6.576;2022-10-16T12:12:23;17.30;93.00
58554;DHT22;48119;53.218;6.576;2022-10-16T12:15:03;17.30;93.10
58554;DHT22;48119;53.218;6.576;2022-10-16T12:17:37;17.30;92.90
58554;DHT22;48119;53.218;6.576;2022-10-16T12:23:17;17.20;92.20
58554;DHT22;48119;53.218;6.576;2022-10-16T12:25:54;17.20;92.20
58554;DHT22;48119;53.218;6.576;2022-10-16T12:28:26;17.10;92.40
58554;DHT22;48119;53.218;6.576;2022-10-16T12:30:55;17.10;92.50
58554;DHT22;48119;53.218;6.576;2022-10-16T12:33:29;17.10;92.40
58554;DHT22;48119;53.218;6.576;2022-10-16T12:35:57;17.10;92.40
58554;DHT22;48119;53.218;6.576;2022-10-16T12:38:30;17.00;92.50
58554;DHT22;48119;53.218;6.576;2022-10-16T12:41:05;17.00;92.50
58554;DHT22;48119;53.218;6.576;2022-10-16T12:43:44;17.00;92.70
58554;DHT22;48119;53.218;6.576;2022-10-16T12:48:37;17.00;92.90
58554;DHT22;48119;53.218;6.576;2022-10-16T12:57:01;17.00;93.10
58554;DHT22;48119;53.218;6.576;2022-10-16T12:59:46;17.00;93.10
58554;DHT22;48119;53.218;6.576;2022-10-16T13:16:11;17.00;92.80
58554;DHT22;48119;53.218;6.576;2022-10-16T13:27:56;16.90;92.10
58554;DHT22;48119;53.218;6.576;2022-10-16T13:30:29;16.90;92.10
58554;DHT22;48119;53.218;6.576;2022-10-16T13:36:02;16.90;92.10
58554;DHT22;48119;53.218;6.576;2022-10-16T13:38:33;16.90;92.10
58554;DHT22;48119;53.218;6.576;2022-10-16T13:41:03;16.90;92.00
58554;DHT22;48119;53.218;6.576;2022-10-16T13:43:42;16.90;91.80
58554;DHT22;48119;53.218;6.576;2022-10-16T13:46:14;16.90;91.70
58554;DHT22;48119;53.218;6.576;2022-10-16T13:48:40;16.90;91.60
58554;DHT22;48119;53.218;6.576;2022-10-16T13:51:16;16.90;91.70
58554;DHT22;48119;53.218;6.576;2022-10-16T13:53:42;16.90;92.00
58554;DHT22;48119;53.218;6.576;2022-10-16T13:56:14;16.90;91.90
58554;DHT22;48119;53.218;6.576;2022-10-16T13:58:41;16.90;91.90
58554;DHT22;48119;53.218;6.576;2022-10-16T14:01:31;16.90;92.10
58554;DHT22;48119;53.218;6.576;2022-10-16T14:04:07;16.90;92.10
58554;DHT22;48119;53.218;6.576;2022-10-16T14:06:35;16.90;92.20
58554;DHT22;48119;53.218;6.576;2022-10-16T14:09:11;16.90;92.30
58554;DHT22;48119;53.218;6.576;2022-10-16T14:11:47;16.90;92.50
58554;DHT22;48119;53.218;6.576;2022-10-16T14:14:14;16.90;92.50
58554;DHT22;48119;53.218;6.576;2022-10-16T14:16:42;16.90;92.50
58554;DHT22;48119;53.218;6.576;2022-10-16T14:19:22;16.90;92.60
58554;DHT22;48119;53.218;6.576;2022-10-16T14:21:50;16.90;92.40
58554;DHT22;48119;53.218;6.576;2022-10-16T14:24:36;16.90;92.50
58554;DHT22;48119;53.218;6.576;2022-10-16T14:27:20;16.90;92.70
58554;DHT22;48119;53.218;6.576;2022-10-16T14:29:48;16.90;92.70
58554;DHT22;48119;53.218;6.576;2022-10-16T14:32:23;16.90;92.70
58554;DHT22;48119;53.218;6.576;2022-10-16T14:34:53;16.90;92.60
58554;DHT22;48119;53.218;6.576;2022-10-16T14:37:27;16.90;92.70
58554;DHT22;48119;53.218;6.576;2022-10-16T14:39:54;16.90;92.80
58554;DHT22;48119;53.218;6.576;2022-10-16T14:42:22;16.90;92.90
58554;DHT22;48119;53.218;6.576;2022-10-16T14:44:52;16.90;93.00
58554;DHT22;48119;53.218;6.576;2022-10-16T14:47:21;16.80;92.90
58554;DHT22;48119;53.218;6.576;2022-10-16T14:49:50;16.80;93.00
58554;DHT22;48119;53.218;6.576;2022-10-16T14:52:16;16.80;93.00
58554;DHT22;48119;53.218;6.576;2022-10-16T14:54:42;16.80;93.00
58554;DHT22;48119;53.218;6.576;2022-10-16T14:57:20;16.80;93.00
58554;DHT22;48119;53.218;6.576;2022-10-16T14:59:47;16.80;93.10
58554;DHT22;48119;53.218;6.576;2022-10-16T15:04:54;16.80;93.20
58554;DHT22;48119;53.218;6.576;2022-10-16T15:07:20;16.80;93.30
58554;DHT22;48119;53.218;6.576;2022-10-16T15:09:46;16.80;93.30
58554;DHT22;48119;53.218;6.576;2022-10-16T15:12:12;16.80;93.40
58554;DHT22;48119;53.218;6.576;2022-10-16T15:14:38;16.80;93.50
58554;DHT22;48119;53.218;6.576;2022-10-16T15:17:04;16.80;93.50
58554;DHT22;48119;53.218;6.576;2022-10-16T15:19:30;16.80;93.50
58554;DHT22;48119;53.218;6.576;2022-10-16T15:21:56;16.80;93.50
58554;DHT22;48119;53.218;6.576;2022-10-16T15:24:22;16.80;93.40
58554;DHT22;48119;53.218;6.576;2022-10-16T15:26:48;16.80;93.40
58554;DHT22;48119;53.218;6.576;2022-10-16T15:29:15;16.80;93.40
58554;DHT22;48119;53.218;6.576;2022-10-16T15:31:41;16.80;93.30
58554;DHT22;48119;53.218;6.576;2022-10-16T15:34:10;16.80;93.20
58554;DHT22;48119;53.218;6.576;2022-10-16T15:36:37;16.70;93.10
58554;DHT22;48119;53.218;6.576;2022-10-16T15:39:05;16.70;93.10
58554;DHT22;48119;53.218;6.576;2022-10-16T15:41:31;16.70;93.10
58554;DHT22;48119;53.218;6.576;2022-10-16T15:43:56;16.70;93.10
58554;DHT22;48119;53.218;6.576;2022-10-16T15:46:23;16.70;93.10
58554;DHT22;48119;53.218;6.576;2022-10-16T15:48:50;16.70;93.10
58554;DHT22;48119;53.218;6.576;2022-10-16T15:51:18;16.70;93.00
58554;DHT22;48119;53.218;6.576;2022-10-16T15:53:44;16.70;93.00
58554;DHT22;48119;53.218;6.576;2022-10-16T15:56:12;16.70;92.90
58554;DHT22;48119;53.218;6.576;2022-10-16T15:58:38;16.70;92.90
58554;DHT22;48119;53.218;6.576;2022-10-16T16:01:04;16.70;92.90
58554;DHT22;48119;53.218;6.576;2022-10-16T16:03:31;16.70;92.90
58554;DHT22;48119;53.218;6.576;2022-10-16T16:05:57;16.70;93.00
58554;DHT22;48119;53.218;6.576;2022-10-16T16:08:23;16.60;93.00
58554;DHT22;48119;53.218;6.576;2022-10-16T16:13:25;16.60;93.00
58554;DHT22;48119;53.218;6.576;2022-10-16T16:15:51;16.60;93.00
58554;DHT22;48119;53.218;6.576;2022-10-16T16:18:16;16.60;93.20
58554;DHT22;48119;53.218;6.576;2022-10-16T16:20:44;16.60;93.30
58554;DHT22;48119;53.218;6.576;2022-10-16T16:23:10;16.60;93.30
58554;DHT22;48119;53.218;6.576;2022-10-16T16:25:36;16.50;93.30
58554;DHT22;48119;53.218;6.576;2022-10-16T16:28:02;16.50;93.30
58554;DHT22;48119;53.218;6.576;2022-10-16T16:30:27;16.50;93.30
58554;DHT22;48119;53.218;6.576;2022-10-16T16:32:53;16.50;93.30
58554;DHT22;48119;53.218;6.576;2022-10-16T16:35:19;16.50;93.30
58554;DHT22;48119;53.218;6.576;2022-10-16T16:37:46;16.50;93.20
58554;DHT22;48119;53.218;6.576;2022-10-16T16:40:12;16.50;93.20
58554;DHT22;48119;53.218;6.576;2022-10-16T16:42:38;16.40;93.30
58554;DHT22;48119;53.218;6.576;2022-10-16T16:45:04;16.40;93.50
58554;DHT22;48119;53.218;6.576;2022-10-16T16:47:30;16.40;93.60
58554;DHT22;48119;53.218;6.576;2022-10-16T16:49:57;16.40;93.70
58554;DHT22;48119;53.218;6.576;2022-10-16T16:52:23;16.40;93.80
58554;DHT22;48119;53.218;6.576;2022-10-16T16:54:48;16.50;93.90
58554;DHT22;48119;53.218;6.576;2022-10-16T16:57:20;16.30;94.00
58554;DHT22;48119;53.218;6.576;2022-10-16T16:59:46;16.30;94.10
58554;DHT22;48119;53.218;6.576;2022-10-16T17:02:11;16.30;94.30
58554;DHT22;48119;53.218;6.576;2022-10-16T17:04:37;16.30;94.50
58554;DHT22;48119;53.218;6.576;2022-10-16T17:07:03;16.30;94.60
58554;DHT22;48119;53.218;6.576;2022-10-16T17:09:28;16.20;94.70
58554;DHT22;48119;53.218;6.576;2022-10-16T17:11:56;16.20;94.80
58554;DHT22;48119;53.218;6.576;2022-10-16T17:14:22;16.20;94.90
58554;DHT22;48119;53.218;6.576;2022-10-16T17:16:48;16.20;95.00
58554;DHT22;48119;53.218;6.576;2022-10-16T17:19:16;16.20;95.00
58554;DHT22;48119;53.218;6.576;2022-10-16T17:21:43;16.10;95.10
58554;DHT22;48119;53.218;6.576;2022-10-16T17:24:09;16.10;95.20
58554;DHT22;48119;53.218;6.576;2022-10-16T17:26:36;16.10;95.20
58554;DHT22;48119;53.218;6.576;2022-10-16T17:29:03;16.00;95.30
58554;DHT22;48119;53.218;6.576;2022-10-16T17:31:34;16.10;95.30
58554;DHT22;48119;53.218;6.576;2022-10-16T17:34:03;16.10;95.40
58554;DHT22;48119;53.218;6.576;2022-10-16T17:36:32;16.10;95.40
58554;DHT22;48119;53.218;6.576;2022-10-16T17:39:07;16.10;95.30
58554;DHT22;48119;53.218;6.576;2022-10-16T17:41:34;16.10;95.30
58554;DHT22;48119;53.218;6.576;2022-10-16T17:44:00;16.10;95.50
58554;DHT22;48119;53.218;6.576;2022-10-16T17:46:26;16.00;95.60
58554;DHT22;48119;53.218;6.576;2022-10-16T17:48:53;16.00;95.70
58554;DHT22;48119;53.218;6.576;2022-10-16T17:51:25;16.00;95.80